createdAt,value
2018-06-03T00:00:38.616Z,3.00
2018-06-03T00:03:05.793Z,3.57
2018-06-03T00:05:32.988Z,2.90
2018-06-03T00:08:00.186Z,2.87
2018-06-03T00:10:27.377Z,2.73
2018-06-03T00:12:54.585Z,2.70
2018-06-03T00:15:21.773Z,2.67
2018-06-03T00:17:48.981Z,2.77
2018-06-03T00:20:15.936Z,2.83
2018-06-03T00:22:43.113Z,2.90
2018-06-03T00:25:10.343Z,2.60
2018-06-03T00:27:37.534Z,2.97
2018-06-03T00:30:04.737Z,2.93
2018-06-03T00:32:31.911Z,2.90
2018-06-03T00:34:59.102Z,2.60
2018-06-03T00:37:26.294Z,2.40
2018-06-03T00:39:53.494Z,2.60
2018-06-03T00:42:20.686Z,2.73
2018-06-03T00:44:47.870Z,3.30
2018-06-03T00:47:15.066Z,2.73
2018-06-03T00:49:42.249Z,3.03
2018-06-03T00:52:09.442Z,2.60
2018-06-03T00:54:36.626Z,3.33
2018-06-03T00:57:09.439Z,2.60
2018-06-03T00:59:36.561Z,3.53
2018-06-03T01:02:03.754Z,2.67
2018-06-03T01:04:30.949Z,2.70
2018-06-03T01:06:58.132Z,2.33
2018-06-03T01:09:25.368Z,2.70
2018-06-03T01:11:52.698Z,2.90
2018-06-03T01:14:19.897Z,2.80
2018-06-03T01:16:47.078Z,2.80
2018-06-03T01:19:14.257Z,3.20
2018-06-03T01:21:41.453Z,2.70
2018-06-03T01:24:08.647Z,3.00
2018-06-03T01:26:35.842Z,2.83
2018-06-03T01:29:03.031Z,2.70
2018-06-03T01:31:30.218Z,2.67
2018-06-03T01:33:57.418Z,3.10
2018-06-03T01:36:24.605Z,2.63
2018-06-03T01:38:51.804Z,2.80
2018-06-03T01:41:18.993Z,2.43
2018-06-03T01:43:46.254Z,2.53
2018-06-03T01:46:13.432Z,3.03
2018-06-03T01:48:40.630Z,2.93
2018-06-03T01:51:07.824Z,3.97
2018-06-03T01:53:35.026Z,3.17
2018-06-03T01:56:02.227Z,2.63
2018-06-03T01:58:29.518Z,2.83
2018-06-03T02:00:56.719Z,2.50
2018-06-03T02:03:23.896Z,2.67
2018-06-03T02:05:51.095Z,2.23
2018-06-03T02:08:18.294Z,2.83
2018-06-03T02:10:45.497Z,2.83
2018-06-03T02:13:12.683Z,2.57
2018-06-03T02:15:39.872Z,1.90
2018-06-03T02:18:07.052Z,2.97
2018-06-03T02:20:34.249Z,3.13
2018-06-03T02:23:01.448Z,2.60
2018-06-03T02:25:28.629Z,2.40
2018-06-03T02:27:55.817Z,2.60
2018-06-03T02:30:23.003Z,2.80
2018-06-03T02:32:50.214Z,2.30
2018-06-03T02:35:17.393Z,2.57
2018-06-03T02:37:44.582Z,2.40
2018-06-03T02:40:11.782Z,2.37
2018-06-03T02:42:39.002Z,3.03
2018-06-03T02:45:06.190Z,2.30
2018-06-03T02:47:33.373Z,1.97
2018-06-03T02:50:00.586Z,2.17
2018-06-03T02:52:27.764Z,2.27
2018-06-03T02:54:55.002Z,2.60
2018-06-03T02:57:22.351Z,2.40
2018-06-03T02:59:49.540Z,2.50
2018-06-03T03:02:16.733Z,2.43
2018-06-03T03:04:43.918Z,2.13
2018-06-03T03:07:11.113Z,2.50
2018-06-03T03:09:38.299Z,2.40
2018-06-03T03:12:05.514Z,2.53
2018-06-03T03:14:32.694Z,2.30
2018-06-03T03:16:59.883Z,2.40
2018-06-03T03:19:27.087Z,2.10
2018-06-03T03:21:54.262Z,2.33
2018-06-03T03:24:21.447Z,2.53
2018-06-03T03:26:48.641Z,2.60
2018-06-03T03:29:16.043Z,2.30
2018-06-03T03:31:43.227Z,2.30
2018-06-03T03:34:10.413Z,2.63
2018-06-03T03:36:37.605Z,2.23
2018-06-03T03:39:04.551Z,2.50
2018-06-03T03:41:31.742Z,2.70
2018-06-03T03:43:58.934Z,2.40
2018-06-03T03:46:26.114Z,2.40
2018-06-03T03:48:53.314Z,2.30
2018-06-03T03:51:20.487Z,2.40
2018-06-03T03:53:47.679Z,1.90
2018-06-03T03:56:14.865Z,2.70
2018-06-03T03:58:42.056Z,2.07
2018-06-03T04:01:09.241Z,2.50
2018-06-03T04:03:36.437Z,2.20
2018-06-03T04:06:03.825Z,2.33
2018-06-03T04:08:31.002Z,1.87
2018-06-03T04:10:58.193Z,2.23
2018-06-03T04:13:25.378Z,2.27
2018-06-03T04:15:52.561Z,2.60
2018-06-03T04:18:19.745Z,2.13
2018-06-03T04:20:46.964Z,2.10
2018-06-03T04:23:14.149Z,2.17
2018-06-03T04:25:41.348Z,1.90
2018-06-03T04:28:08.553Z,2.13
2018-06-03T04:30:35.739Z,2.10
2018-06-03T04:33:02.925Z,2.17
2018-06-03T04:35:30.114Z,2.27
2018-06-03T04:37:57.318Z,2.13
2018-06-03T04:40:24.500Z,1.83
2018-06-03T04:42:51.759Z,2.30
2018-06-03T04:45:18.934Z,1.97
2018-06-03T04:47:46.117Z,2.17
2018-06-03T04:50:13.302Z,2.47
2018-06-03T04:52:40.485Z,2.40
2018-06-03T04:55:07.739Z,1.90
2018-06-03T04:57:35.080Z,2.13
2018-06-03T05:00:02.277Z,2.50
2018-06-03T05:02:29.473Z,2.00
2018-06-03T05:04:56.803Z,1.67
2018-06-03T05:07:23.993Z,2.00
2018-06-03T05:09:51.178Z,2.03
2018-06-03T05:12:18.373Z,2.10
2018-06-03T05:14:45.559Z,4.83
2018-06-03T05:17:12.761Z,2.20
2018-06-03T05:19:39.936Z,1.80
2018-06-03T05:22:07.141Z,2.13
2018-06-03T05:24:34.338Z,1.83
2018-06-03T05:27:01.534Z,2.43
2018-06-03T05:29:28.743Z,1.90
2018-06-03T05:31:55.922Z,2.10
2018-06-03T05:34:23.118Z,1.80
2018-06-03T05:36:50.294Z,1.83
2018-06-03T05:39:17.497Z,1.90
2018-06-03T05:41:44.677Z,1.90
2018-06-03T05:44:11.889Z,3.57
2018-06-03T05:46:39.077Z,2.10
2018-06-03T05:49:06.266Z,2.30
2018-06-03T05:51:33.485Z,2.30
2018-06-03T05:54:00.663Z,2.10
2018-06-03T05:56:27.874Z,1.93
2018-06-03T05:58:55.078Z,1.60
2018-06-03T06:01:22.261Z,2.03
2018-06-03T06:03:49.465Z,2.40
2018-06-03T06:06:16.645Z,1.80
2018-06-03T06:08:43.851Z,2.20
2018-06-03T06:11:11.034Z,2.10
2018-06-03T06:13:38.234Z,2.10
2018-06-03T06:16:05.414Z,1.87
2018-06-03T06:18:32.610Z,2.03
2018-06-03T06:20:59.806Z,3.43
2018-06-03T06:23:26.993Z,2.80
2018-06-03T06:25:54.189Z,1.90
2018-06-03T06:28:21.385Z,2.00
2018-06-03T06:30:48.568Z,1.90
2018-06-03T06:33:15.755Z,1.90
2018-06-03T06:35:42.953Z,2.03
2018-06-03T06:38:10.145Z,2.17
2018-06-03T06:40:37.330Z,2.20
2018-06-03T06:43:04.521Z,2.10
2018-06-03T06:45:31.708Z,1.97
2018-06-03T06:47:58.901Z,2.17
2018-06-03T06:50:26.112Z,2.10
2018-06-03T06:52:53.326Z,1.80
2018-06-03T06:55:20.525Z,2.33
2018-06-03T06:57:47.723Z,2.10
2018-06-03T07:00:14.965Z,2.00
2018-06-03T07:02:42.303Z,2.40
2018-06-03T07:05:09.519Z,2.43
2018-06-03T07:07:36.893Z,1.80
2018-06-03T07:10:03.847Z,2.30
2018-06-03T07:12:31.061Z,2.20
2018-06-03T07:14:58.251Z,2.30
2018-06-03T07:17:25.446Z,2.80
2018-06-03T07:19:52.657Z,2.33
2018-06-03T07:22:19.873Z,2.20
2018-06-03T07:24:47.068Z,2.40
2018-06-03T07:27:14.275Z,2.07
2018-06-03T07:29:41.452Z,2.50
2018-06-03T07:32:08.695Z,2.20
2018-06-03T07:34:36.086Z,2.30
2018-06-03T07:37:03.281Z,3.40
2018-06-03T07:39:30.487Z,2.13
2018-06-03T07:41:57.667Z,2.10
2018-06-03T07:44:25.073Z,2.60
2018-06-03T07:46:52.272Z,2.50
2018-06-03T07:49:19.470Z,2.33
2018-06-03T07:51:46.694Z,2.30
2018-06-03T07:54:13.894Z,2.20
2018-06-03T07:56:41.082Z,2.20
2018-06-03T07:59:08.279Z,2.30
2018-06-03T08:01:35.505Z,2.03
2018-06-03T08:04:02.701Z,2.30
2018-06-03T08:06:29.873Z,2.50
2018-06-03T08:08:57.079Z,2.33
2018-06-03T08:11:24.276Z,2.40
2018-06-03T08:13:51.473Z,2.00
2018-06-03T08:16:18.794Z,2.47
2018-06-03T08:18:45.981Z,2.20
2018-06-03T08:21:13.183Z,2.00
2018-06-03T08:23:40.449Z,2.00
2018-06-03T08:26:07.644Z,1.97
2018-06-03T08:28:34.826Z,2.10
2018-06-03T08:31:02.233Z,2.27
2018-06-03T08:33:29.423Z,2.50
2018-06-03T08:35:56.611Z,2.60
2018-06-03T08:38:23.806Z,2.50
2018-06-03T08:40:50.998Z,2.37
2018-06-03T08:43:18.206Z,2.30
2018-06-03T08:45:45.391Z,2.50
2018-06-03T08:48:12.594Z,2.17
2018-06-03T08:50:39.800Z,2.37
2018-06-03T08:53:06.983Z,2.20
2018-06-03T08:55:34.181Z,2.20
2018-06-03T08:58:01.393Z,2.50
2018-06-03T09:00:28.637Z,1.87
2018-06-03T09:02:55.974Z,2.07
2018-06-03T09:05:23.169Z,2.20
2018-06-03T09:07:50.350Z,2.30
2018-06-03T09:10:17.554Z,2.23
2018-06-03T09:12:44.768Z,2.50
2018-06-03T09:15:11.966Z,2.00
2018-06-03T09:17:39.162Z,2.40
2018-06-03T09:20:06.357Z,2.57
2018-06-03T09:22:33.574Z,2.67
2018-06-03T09:25:00.827Z,2.70
2018-06-03T09:27:28.162Z,2.23
2018-06-03T09:29:55.369Z,2.40
2018-06-03T09:32:22.552Z,2.40
2018-06-03T09:34:49.758Z,2.70
2018-06-03T09:37:17.051Z,2.40
2018-06-03T09:39:44.238Z,2.33
2018-06-03T09:42:11.443Z,2.60
2018-06-03T09:44:38.671Z,2.50
2018-06-03T09:47:06.086Z,2.37
2018-06-03T09:49:33.274Z,2.13
2018-06-03T09:52:00.572Z,2.33
2018-06-03T09:54:27.779Z,2.40
2018-06-03T09:56:54.973Z,2.23
2018-06-03T09:59:22.198Z,2.30
2018-06-03T10:01:49.492Z,2.73
2018-06-03T10:04:16.701Z,2.70
2018-06-03T10:06:43.891Z,2.33
2018-06-03T10:09:11.086Z,2.70
2018-06-03T10:11:38.285Z,2.43
2018-06-03T10:14:05.491Z,3.43
2018-06-03T10:16:32.674Z,3.20
2018-06-03T10:18:59.877Z,2.90
2018-06-03T10:21:27.093Z,2.97
2018-06-03T10:23:54.474Z,2.10
2018-06-03T10:26:21.770Z,3.23
2018-06-03T10:28:49.105Z,2.20
2018-06-03T10:31:16.073Z,2.87
2018-06-03T10:33:43.289Z,2.60
2018-06-03T10:36:10.648Z,2.30
2018-06-03T10:38:37.853Z,2.33
2018-06-03T10:41:05.155Z,2.50
2018-06-03T10:43:32.361Z,2.70
2018-06-03T10:45:59.579Z,2.27
2018-06-03T10:48:26.980Z,1.90
2018-06-03T10:50:54.188Z,2.40
2018-06-03T10:53:21.382Z,2.00
2018-06-03T10:55:48.670Z,2.40
2018-06-03T10:58:15.940Z,2.30
2018-06-03T11:00:43.119Z,2.43
2018-06-03T11:03:10.347Z,2.30
2018-06-03T11:05:37.573Z,2.47
2018-06-03T11:08:04.944Z,2.37
2018-06-03T11:10:32.126Z,2.13
2018-06-03T11:12:59.335Z,2.50
2018-06-03T11:15:26.567Z,2.53
2018-06-03T11:17:53.740Z,2.30
2018-06-03T11:20:20.921Z,2.27
2018-06-03T11:22:48.180Z,2.40
2018-06-03T11:25:15.366Z,2.80
2018-06-03T11:27:42.772Z,1.93
2018-06-03T11:30:09.969Z,2.30
2018-06-03T11:32:37.153Z,2.00
2018-06-03T11:35:04.355Z,2.20
2018-06-03T11:37:31.564Z,2.67
2018-06-03T11:39:58.765Z,3.50
2018-06-03T11:42:25.990Z,2.10
2018-06-03T11:44:53.181Z,2.70
2018-06-03T11:47:20.394Z,2.60
2018-06-03T11:49:47.586Z,1.90
2018-06-03T11:52:14.819Z,2.23
2018-06-03T11:54:42.056Z,2.73
2018-06-03T11:57:09.279Z,2.20
2018-06-03T11:59:39.131Z,2.57
2018-06-03T12:02:06.315Z,2.20
2018-06-03T12:04:33.505Z,2.73
2018-06-03T12:07:00.701Z,2.40
2018-06-03T12:09:27.935Z,2.20
2018-06-03T12:11:55.190Z,3.67
2018-06-03T12:14:22.445Z,2.40
2018-06-03T12:16:49.697Z,3.00
2018-06-03T12:19:16.889Z,2.27
2018-06-03T12:21:44.104Z,1.80
2018-06-03T12:24:11.290Z,2.10
2018-06-03T12:26:38.613Z,2.20
2018-06-03T12:29:05.803Z,1.73
2018-06-03T12:31:33.023Z,1.90
2018-06-03T12:34:00.267Z,1.73
2018-06-03T12:36:27.466Z,2.17
2018-06-03T12:38:54.655Z,2.77
2018-06-03T12:41:21.876Z,2.37
2018-06-03T12:43:49.068Z,2.63
2018-06-03T12:46:16.342Z,2.97
2018-06-03T12:48:43.522Z,2.10
2018-06-03T12:51:10.747Z,2.03
2018-06-03T12:53:37.934Z,2.40
2018-06-03T12:56:05.133Z,2.90
2018-06-03T12:58:32.405Z,2.57
2018-06-03T13:00:59.609Z,3.37
2018-06-03T13:03:26.793Z,2.07
2018-06-03T13:05:53.996Z,3.00
2018-06-03T13:08:21.169Z,2.67
2018-06-03T13:10:48.471Z,2.93
2018-06-03T13:13:15.733Z,4.07
2018-06-03T13:15:42.980Z,1.90
2018-06-03T13:18:10.264Z,2.00
2018-06-03T13:20:37.695Z,2.20
2018-06-03T13:23:04.892Z,2.10
2018-06-03T13:25:32.077Z,1.80
2018-06-03T13:27:59.292Z,1.67
2018-06-03T13:30:26.513Z,2.70
2018-06-03T13:32:53.699Z,2.00
2018-06-03T13:35:20.910Z,2.10
2018-06-03T13:37:48.082Z,2.20
2018-06-03T13:40:15.291Z,2.30
2018-06-03T13:42:42.469Z,2.07
2018-06-03T13:45:38.420Z,1.70
2018-06-03T13:48:05.750Z,2.10
2018-06-03T13:50:33.041Z,1.83
2018-06-03T13:53:00.319Z,2.00
2018-06-03T13:55:27.577Z,3.00
2018-06-03T13:57:54.974Z,2.20
2018-06-03T14:00:22.241Z,2.00
2018-06-03T14:02:49.585Z,2.47
2018-06-03T14:05:16.944Z,1.70
2018-06-03T14:07:44.195Z,1.80
2018-06-03T14:10:11.495Z,1.83
2018-06-03T14:12:38.758Z,2.20
2018-06-03T14:15:06.013Z,2.30
2018-06-03T14:17:33.418Z,1.80
2018-06-03T14:20:00.826Z,2.50
2018-06-03T14:22:28.219Z,1.90
2018-06-03T14:24:55.486Z,1.57
2018-06-03T14:27:22.721Z,1.60
2018-06-03T14:29:50.033Z,2.00
2018-06-03T14:32:17.351Z,1.83
2018-06-03T14:34:44.603Z,1.83
2018-06-03T14:37:11.926Z,1.80
2018-06-03T14:39:43.906Z,2.30
2018-06-03T14:42:11.159Z,2.00
2018-06-03T14:44:38.434Z,1.93
2018-06-03T14:47:05.823Z,2.73
2018-06-03T14:49:33.073Z,2.00
2018-06-03T14:52:00.300Z,2.10
2018-06-03T14:54:27.586Z,1.60
2018-06-03T14:56:54.850Z,2.93
2018-06-03T14:59:22.065Z,2.37
2018-06-03T15:01:49.330Z,1.67
2018-06-03T15:04:16.629Z,1.97
2018-06-03T15:06:43.922Z,1.80
2018-06-03T15:09:11.233Z,2.17
2018-06-03T15:11:38.521Z,2.43
2018-06-03T15:14:05.947Z,1.60
2018-06-03T15:16:33.303Z,1.77
2018-06-03T15:19:01.538Z,1.80
2018-06-03T15:21:28.859Z,1.80
2018-06-03T15:23:56.154Z,1.60
2018-06-03T15:26:23.431Z,2.17
2018-06-03T15:28:50.695Z,2.10
2018-06-03T15:31:17.949Z,3.23
2018-06-03T15:33:45.265Z,1.63
2018-06-03T15:36:12.707Z,1.90
2018-06-03T15:38:40.086Z,1.83
2018-06-03T15:41:07.370Z,1.60
2018-06-03T15:43:34.696Z,1.63
2018-06-03T15:46:01.983Z,1.63
2018-06-03T15:48:29.248Z,1.80
2018-06-03T15:50:56.501Z,1.47
2018-06-03T15:53:23.823Z,1.60
2018-06-03T15:55:51.134Z,1.60
2018-06-03T15:58:18.434Z,1.70
2018-06-03T16:00:45.793Z,1.80
2018-06-03T16:03:13.082Z,2.20
2018-06-03T16:05:40.551Z,2.57
2018-06-03T16:08:07.927Z,1.43
2018-06-03T16:10:35.179Z,1.70
2018-06-03T16:13:02.485Z,1.77
2018-06-03T16:15:29.766Z,2.40
2018-06-03T16:17:57.095Z,2.50
2018-06-03T16:20:24.450Z,2.20
2018-06-03T16:22:51.724Z,2.17
2018-06-03T16:25:25.567Z,1.70
2018-06-03T16:27:52.798Z,2.00
2018-06-03T16:30:20.080Z,1.73
2018-06-03T16:32:47.338Z,1.63
2018-06-03T16:35:14.626Z,1.93
2018-06-03T16:37:41.911Z,2.30
2018-06-03T16:40:09.182Z,1.70
2018-06-03T16:42:36.722Z,1.87
2018-06-03T16:45:04.004Z,1.63
2018-06-03T16:47:31.311Z,1.60
2018-06-03T16:49:58.572Z,1.60
2018-06-03T16:52:25.859Z,2.20
2018-06-03T16:54:53.138Z,1.93
2018-06-03T16:57:20.405Z,2.20
2018-06-03T16:59:47.728Z,2.20
2018-06-03T17:02:15.037Z,1.80
2018-06-03T17:04:42.310Z,1.97
2018-06-03T17:07:09.595Z,1.87
2018-06-03T17:09:36.884Z,1.97
2018-06-03T17:12:04.254Z,1.40
2018-06-03T17:14:31.604Z,1.80
2018-06-03T17:16:59.016Z,1.60
2018-06-03T17:19:26.296Z,2.07
2018-06-03T17:21:53.569Z,1.70
2018-06-03T17:24:20.880Z,1.80
2018-06-03T17:26:48.114Z,2.10
2018-06-03T17:29:15.425Z,2.10
2018-06-03T17:31:42.722Z,2.00
2018-06-03T17:34:10.040Z,2.30
2018-06-03T17:36:37.330Z,2.10
2018-06-03T17:39:06.397Z,1.80
2018-06-03T17:41:33.791Z,2.00
2018-06-03T17:44:01.281Z,2.30
2018-06-03T17:46:28.554Z,2.10
2018-06-03T17:48:55.831Z,2.00
2018-06-03T17:51:23.133Z,2.10
2018-06-03T17:53:50.408Z,2.30
2018-06-03T17:56:17.749Z,2.10
2018-06-03T17:58:45.058Z,1.77
2018-06-03T18:01:12.302Z,2.40
2018-06-03T18:03:39.573Z,2.07
2018-06-03T18:06:07.006Z,2.20
2018-06-03T18:08:34.464Z,2.47
2018-06-03T18:11:01.873Z,2.13
2018-06-03T18:13:29.337Z,1.77
2018-06-03T18:15:56.634Z,2.03
2018-06-03T18:18:23.910Z,2.10
2018-06-03T18:20:51.247Z,2.30
2018-06-03T18:23:18.494Z,1.87
2018-06-03T18:25:45.880Z,2.10
2018-06-03T18:28:13.162Z,1.90
2018-06-03T18:30:40.474Z,2.07
2018-06-03T18:33:07.794Z,2.13
2018-06-03T18:35:35.180Z,1.93
2018-06-03T18:38:02.471Z,3.57
2018-06-03T18:40:29.753Z,3.60
2018-06-03T18:42:57.031Z,2.20
2018-06-03T18:45:24.381Z,2.10
2018-06-03T18:47:51.659Z,2.23
2018-06-03T18:50:18.974Z,2.50
2018-06-03T18:52:46.266Z,2.20
2018-06-03T18:55:13.580Z,2.00
2018-06-03T18:57:40.892Z,1.77
2018-06-03T19:00:08.240Z,2.80
2018-06-03T19:02:35.718Z,2.07
2018-06-03T19:05:03.073Z,2.30
2018-06-03T19:07:30.358Z,2.00
2018-06-03T19:09:57.698Z,2.20
2018-06-03T19:12:25.025Z,2.17
2018-06-03T19:14:52.478Z,1.97
2018-06-03T19:17:19.986Z,2.17
2018-06-03T19:19:47.719Z,2.27
2018-06-03T19:22:15.031Z,2.77
2018-06-03T19:24:42.327Z,2.13
2018-06-03T19:27:09.749Z,2.60
2018-06-03T19:29:37.104Z,2.43
2018-06-03T19:32:04.368Z,2.67
2018-06-03T19:34:31.734Z,2.80
2018-06-03T19:36:59.046Z,2.93
2018-06-03T19:39:26.556Z,2.83
2018-06-03T19:41:53.921Z,2.80
2018-06-03T19:44:21.225Z,2.73
2018-06-03T19:46:48.513Z,2.50
2018-06-03T19:49:15.959Z,2.70
2018-06-03T19:51:43.221Z,2.63
2018-06-03T19:54:10.555Z,2.70
2018-06-03T19:56:38.054Z,2.67
2018-06-03T19:59:05.343Z,2.67
2018-06-03T20:01:32.665Z,2.63
2018-06-03T20:04:00.047Z,3.20
2018-06-03T20:06:27.447Z,3.00
2018-06-03T20:08:54.995Z,2.80
2018-06-03T20:11:22.483Z,3.30
2018-06-03T20:13:49.815Z,3.37
2018-06-03T20:16:17.194Z,3.27
2018-06-03T20:18:44.507Z,2.70
2018-06-03T20:21:11.829Z,2.67
2018-06-03T20:23:39.147Z,5.73
2018-06-03T20:26:06.607Z,4.37
2018-06-03T20:28:33.886Z,4.30
2018-06-03T20:31:01.206Z,3.83
2018-06-03T20:33:28.518Z,2.90
2018-06-03T20:35:55.981Z,3.30
2018-06-03T20:38:23.287Z,3.00
2018-06-03T20:40:50.619Z,2.60
2018-06-03T20:43:17.930Z,2.90
2018-06-03T20:45:45.232Z,4.87
2018-06-03T20:48:12.498Z,4.70
2018-06-03T20:50:39.791Z,3.80
2018-06-03T20:53:07.123Z,3.43
2018-06-03T20:55:34.426Z,4.80
2018-06-03T20:58:01.714Z,3.33
2018-06-03T21:00:29.023Z,2.80
2018-06-03T21:02:56.339Z,3.70
2018-06-03T21:05:23.654Z,3.50
2018-06-03T21:07:51.129Z,3.33
2018-06-03T21:10:18.464Z,3.03
2018-06-03T21:12:45.755Z,3.13
2018-06-03T21:15:13.051Z,3.87
2018-06-03T21:17:40.415Z,3.40
2018-06-03T21:20:07.722Z,2.93
2018-06-03T21:22:34.974Z,4.77
2018-06-03T21:25:02.251Z,3.93
2018-06-03T21:27:29.503Z,3.70
2018-06-03T21:29:56.784Z,4.40
2018-06-03T21:32:24.038Z,4.57
2018-06-03T21:34:51.406Z,4.10
2018-06-03T21:37:18.645Z,4.83
2018-06-03T21:39:45.905Z,4.47
2018-06-03T21:42:13.154Z,3.90
2018-06-03T21:44:40.410Z,3.53
2018-06-03T21:47:07.666Z,3.87
2018-06-03T21:49:34.915Z,3.40
2018-06-03T21:52:02.155Z,3.33
2018-06-03T21:54:30.052Z,3.37
2018-06-03T21:56:57.378Z,3.83
2018-06-03T21:59:24.719Z,3.80
2018-06-03T22:01:51.973Z,3.67
2018-06-03T22:04:19.218Z,3.40
2018-06-03T22:06:46.470Z,3.70
2018-06-03T22:09:13.721Z,3.77
2018-06-03T22:11:40.965Z,3.60
2018-06-03T22:14:08.213Z,4.07
2018-06-03T22:16:35.482Z,3.30
2018-06-03T22:19:02.788Z,5.00
2018-06-03T22:21:30.041Z,3.60
2018-06-03T22:23:57.336Z,3.87
2018-06-03T22:26:24.592Z,4.33
2018-06-03T22:28:51.858Z,3.40
2018-06-03T22:31:19.122Z,4.10
2018-06-03T22:33:46.368Z,3.67
2018-06-03T22:36:13.600Z,3.30
2018-06-03T22:38:40.942Z,2.83
2018-06-03T22:41:08.205Z,3.30
2018-06-03T22:43:35.537Z,3.60
2018-06-03T22:46:02.830Z,3.23
2018-06-03T22:48:30.106Z,2.90
2018-06-03T22:50:57.374Z,3.67
2018-06-03T22:53:24.635Z,3.87
2018-06-03T22:55:52.360Z,3.50
2018-06-03T22:58:19.624Z,3.70
2018-06-03T23:00:46.893Z,3.80
2018-06-03T23:03:16.159Z,3.50
2018-06-03T23:05:43.547Z,3.50
2018-06-03T23:08:10.805Z,3.57
2018-06-03T23:10:38.062Z,3.73
2018-06-03T23:13:05.486Z,3.40
2018-06-03T23:15:32.746Z,3.87
2018-06-03T23:18:00.023Z,3.40
2018-06-03T23:20:27.241Z,3.77
2018-06-03T23:22:54.527Z,3.77
2018-06-03T23:25:21.755Z,3.63
2018-06-03T23:27:49.022Z,3.97
2018-06-03T23:30:16.300Z,4.13
2018-06-03T23:32:43.717Z,4.07
2018-06-03T23:35:10.966Z,3.90
2018-06-03T23:37:38.239Z,3.13
2018-06-03T23:40:05.518Z,3.40
2018-06-03T23:42:32.766Z,4.57
2018-06-03T23:45:00.034Z,4.40
2018-06-03T23:47:27.289Z,4.40
2018-06-03T23:49:54.521Z,5.00
2018-06-03T23:52:21.779Z,3.83
2018-06-03T23:54:49.006Z,4.53
2018-06-03T23:57:16.283Z,5.40
2018-06-03T23:59:43.529Z,4.27
